• Join FlightAware (Why Join?)
  • Login
  • US Flag 
12:32PM EST


 

Airport Tracker/Info


-or-


 

Live Flight TrackerFlight Track Log ✈ N672DS ✈ 08-Sep-2013 ✈ KACY - KDMW

Flight Track Log - Related Links

Times and Time Zones

All times are in EDT time to prevent confusion due to time zone crossing. See the N672DS flight status page for this flight to view local times or setup timezone preferences in your user account.

Time Position Orientation Groundspeed Altitude Reporting Facility
EDT Latitude Longitude Course Direction KTS MPH feet Rate Location/Type
02:33PM 39.4097 -74.6381 209° Southwest 121 139 2,600  Level Washington Center
02:35PM 39.3806 -74.6470 193° South  Level FlightAware Approximate
02:37PM 39.3054 -74.6850 209° Southwest  Level FlightAware Approximate
02:37PM 39.3125 -74.7628 210° Southwest 127 146 2,500  Level Washington Center
02:38PM 39.2801 -74.7030 209° Southwest  Level FlightAware Approximate
02:39PM 39.2547 -74.7209 209° Southwest  Level FlightAware Approximate
02:39PM 39.3179 -74.8008 280° West  Level Estimated
02:42PM 39.2488 -74.7169 210° Southwest  Level FlightAware Approximate
02:42PM 39.1947 -74.8819 280° West 131 151 2,700  Level Washington Center
02:43PM 39.2237 -74.7354 210° Southwest  Level FlightAware Approximate
02:44PM 39.1839 -74.9387 256° West  Level FlightAware Approximate
02:46PM 39.3540 -75.0583 280° West  Level Estimated
02:46PM 39.0467 -74.9075 265° West 139 160 1,100  Level Washington Center
02:47PM 39.3592 -75.0951 280° West  Level Estimated
02:48PM 39.0602 -74.8677 66° East  Level FlightAware Approximate
02:50PM 39.0339 -74.8433 285° West 119 137 5,500  Level Washington Center
02:51PM 39.2378 -75.1905 283° West  Level Estimated
02:52PM 39.2353 -75.2277 265° West  Level FlightAware Approximate
02:52PM 39.0618 -74.8189 34° Northeast  Level FlightAware Approximate
02:55PM 39.1155 -74.9520 285° West  Level FlightAware Approximate
02:56PM 39.1230 -74.9879 285° West  Level FlightAware Approximate
02:59PM 39.1155 -74.9520 285° West  Level FlightAware Approximate
03:00PM 39.1230 -74.9879 285° West  Level FlightAware Approximate
03:01PM 39.1306 -75.0239 285° West  Level FlightAware Approximate
03:02PM 39.1381 -75.0599 285° West  Level FlightAware Approximate
03:03PM 39.1457 -75.0959 285° West  Level FlightAware Approximate
03:04PM 39.1527 -75.1320 283° West  Level FlightAware Approximate
03:05PM 39.1591 -75.1684 283° West  Level FlightAware Approximate
03:06PM 39.1655 -75.2048 283° West  Level FlightAware Approximate
03:07PM 39.1718 -75.2412 283° West  Level FlightAware Approximate
03:08PM 39.1782 -75.2776 283° West  Level FlightAware Approximate
03:09PM 39.1845 -75.3140 283° West  Level FlightAware Approximate
03:10PM 39.1908 -75.3504 283° West  Level FlightAware Approximate
03:11PM 39.1971 -75.3868 283° West  Level FlightAware Approximate
03:12PM 39.2034 -75.4232 283° West  Level FlightAware Approximate
03:12PM 39.2167 -75.6167 263° West 117 135 4,100  Level Potomac TRACON
03:13PM 39.2097 -75.4596 283° West  Level FlightAware Approximate
03:13PM 39.2167 -75.6667 270° West 118 136 4,100  Level Potomac TRACON
03:14PM 39.2160 -75.4960 283° West  Level FlightAware Approximate
03:14PM 39.2167 -75.7000 270° West 113 130 4,100  Level Potomac TRACON
03:15PM 39.2134 -75.5330 263° West  Level FlightAware Approximate
03:15PM 39.2333 -75.7333 303° West 119 137 4,100  Level Potomac TRACON
03:16PM 39.2098 -75.5700 263° West  Level FlightAware Approximate
03:16PM 39.2500 -75.7667 303° West 114 131 4,100  Level Potomac TRACON
03:17PM 39.2061 -75.6070 263° West  Level FlightAware Approximate
03:17PM 39.2500 -75.8167 270° West 114 131 4,100  Level Potomac TRACON
03:18PM 39.2024 -75.6441 263° West  Level FlightAware Approximate
03:18PM 39.2667 -75.8500 303° West 116 133 4,100  Level Potomac TRACON
03:19PM 39.2833 -75.8833 303° West 114 131 4,100  Level Potomac TRACON
03:20PM 39.2833 -75.9167 270° West 116 133 4,100  Level Potomac TRACON
03:21PM 39.3000 -75.9667 293° West 115 132 4,100  Level Potomac TRACON
03:22PM 39.3167 -76.0000 303° West 115 132 4,100  Level Potomac TRACON
03:23PM 39.3333 -76.0333 303° West 113 130 4,100  Level Potomac TRACON
03:24PM 39.3333 -76.0833 270° West 114 131 4,100  Level Potomac TRACON
03:25PM 39.3500 -76.1167 303° West 119 137 4,100  Level Potomac TRACON
03:26PM 39.3667 -76.1500 303° West 117 135 4,100  Level Potomac TRACON
03:27PM 39.3667 -76.2000 270° West 116 133 4,100  Level Potomac TRACON
03:28PM 39.3833 -76.2333 303° West 118 136 4,100  Level Potomac TRACON
03:29PM 39.4000 -76.2667 303° West 114 131 4,100  Level Potomac TRACON
03:30PM 39.4000 -76.3167 270° West 116 133 4,100 -300 Level Potomac TRACON
03:31PM 39.4167 -76.3500 303° West 113 130 3,600 -540 Descending Potomac TRACON
03:32PM 39.4333 -76.3833 303° West 115 132 3,100 -300 Descending Potomac TRACON
03:33PM 39.4333 -76.4167 270° West 114 131 3,100  Level Potomac TRACON
03:34PM 39.4500 -76.4667 293° West 111 128 3,100  Level Potomac TRACON
03:35PM 39.4667 -76.5000 303° West 117 135 3,100  Level Potomac TRACON
03:36PM 39.4667 -76.5500 270° West 116 133 3,100  Level Potomac TRACON
03:37PM 39.4833 -76.5667 322° Northwest 114 131 3,100  Level Potomac TRACON
03:38PM 39.4833 -76.6167 270° West 113 130 3,100  Level Potomac TRACON
03:39PM 39.4833 -76.6500 270° West 116 133 3,100  Level Potomac TRACON
03:40PM 39.4833 -76.7000 270° West 118 136 3,100  Level Potomac TRACON
03:41PM 39.4833 -76.7500 270° West 117 135 3,100  Level Potomac TRACON
03:42PM 39.4833 -76.7833 270° West 117 135 3,100  Level Potomac TRACON